sensor_id;sensor_type;location;lat;lon;timestamp;temperature;humidity
7206;DHT22;3644;53.480;10.004;2023-04-24T00:00:54;14.60;99.90
7206;DHT22;3644;53.480;10.004;2023-04-24T00:03:22;14.60;99.90
7206;DHT22;3644;53.480;10.004;2023-04-24T00:05:48;14.60;99.90
7206;DHT22;3644;53.480;10.004;2023-04-24T00:08:13;14.60;99.90
7206;DHT22;3644;53.480;10.004;2023-04-24T00:10:39;14.70;99.90
7206;DHT22;3644;53.480;10.004;2023-04-24T00:13:04;14.60;99.90
7206;DHT22;3644;53.480;10.004;2023-04-24T00:15:30;14.60;99.90
7206;DHT22;3644;53.480;10.004;2023-04-24T00:17:56;14.60;99.90
7206;DHT22;3644;53.480;10.004;2023-04-24T00:20:21;14.50;99.90
7206;DHT22;3644;53.480;10.004;2023-04-24T00:22:47;14.50;99.90
7206;DHT22;3644;53.480;10.004;2023-04-24T00:25:13;14.60;99.90
7206;DHT22;3644;53.480;10.004;2023-04-24T00:27:38;14.60;99.90
7206;DHT22;3644;53.480;10.004;2023-04-24T00:30:05;14.50;99.90
7206;DHT22;3644;53.480;10.004;2023-04-24T00:32:30;14.40;99.90
7206;DHT22;3644;53.480;10.004;2023-04-24T00:34:56;14.40;99.90
7206;DHT22;3644;53.480;10.004;2023-04-24T00:37:21;14.40;99.90
7206;DHT22;3644;53.480;10.004;2023-04-24T00:39:47;14.40;99.90
7206;DHT22;3644;53.480;10.004;2023-04-24T00:42:12;14.40;99.90
7206;DHT22;3644;53.480;10.004;2023-04-24T00:44:38;14.50;99.90
7206;DHT22;3644;53.480;10.004;2023-04-24T00:47:04;14.40;99.90
7206;DHT22;3644;53.480;10.004;2023-04-24T00:49:29;14.50;99.90
7206;DHT22;3644;53.480;10.004;2023-04-24T00:51:55;14.40;99.90
7206;DHT22;3644;53.480;10.004;2023-04-24T00:54:22;14.30;99.90
7206;DHT22;3644;53.480;10.004;2023-04-24T00:56:47;14.30;99.90
7206;DHT22;3644;53.480;10.004;2023-04-24T00:59:14;14.30;99.90
7206;DHT22;3644;53.480;10.004;2023-04-24T01:01:41;14.20;99.90
7206;DHT22;3644;53.480;10.004;2023-04-24T01:04:07;14.10;99.90
7206;DHT22;3644;53.480;10.004;2023-04-24T01:06:35;14.10;99.90
7206;DHT22;3644;53.480;10.004;2023-04-24T01:09:03;14.00;99.90
7206;DHT22;3644;53.480;10.004;2023-04-24T01:11:29;14.10;99.90
7206;DHT22;3644;53.480;10.004;2023-04-24T01:13:56;14.10;99.90
7206;DHT22;3644;53.480;10.004;2023-04-24T01:16:22;14.20;99.90
7206;DHT22;3644;53.480;10.004;2023-04-24T01:18:47;14.10;99.90
7206;DHT22;3644;53.480;10.004;2023-04-24T01:21:15;14.00;99.90
7206;DHT22;3644;53.480;10.004;2023-04-24T01:23:44;13.90;99.90
7206;DHT22;3644;53.480;10.004;2023-04-24T01:26:10;14.00;99.90
7206;DHT22;3644;53.480;10.004;2023-04-24T01:28:36;14.00;99.90
7206;DHT22;3644;53.480;10.004;2023-04-24T01:31:02;13.80;99.90
7206;DHT22;3644;53.480;10.004;2023-04-24T01:33:28;13.90;99.90
7206;DHT22;3644;53.480;10.004;2023-04-24T01:35:54;13.90;99.90
7206;DHT22;3644;53.480;10.004;2023-04-24T01:38:19;13.90;99.90
7206;DHT22;3644;53.480;10.004;2023-04-24T01:40:45;13.90;99.90
7206;DHT22;3644;53.480;10.004;2023-04-24T01:43:12;14.00;99.90
7206;DHT22;3644;53.480;10.004;2023-04-24T01:45:37;13.90;99.90
7206;DHT22;3644;53.480;10.004;2023-04-24T01:48:03;13.90;99.90
7206;DHT22;3644;53.480;10.004;2023-04-24T01:50:29;13.90;99.90
7206;DHT22;3644;53.480;10.004;2023-04-24T01:52:54;13.90;99.90
7206;DHT22;3644;53.480;10.004;2023-04-24T01:55:20;14.00;99.90
7206;DHT22;3644;53.480;10.004;2023-04-24T01:57:46;14.00;99.90
7206;DHT22;3644;53.480;10.004;2023-04-24T02:00:12;13.90;99.90
7206;DHT22;3644;53.480;10.004;2023-04-24T02:02:39;13.90;99.90
7206;DHT22;3644;53.480;10.004;2023-04-24T02:05:08;13.90;99.90
7206;DHT22;3644;53.480;10.004;2023-04-24T02:07:34;13.80;99.90
7206;DHT22;3644;53.480;10.004;2023-04-24T02:10:00;13.80;99.90
7206;DHT22;3644;53.480;10.004;2023-04-24T02:12:26;13.70;99.90
7206;DHT22;3644;53.480;10.004;2023-04-24T02:14:51;13.70;99.90
7206;DHT22;3644;53.480;10.004;2023-04-24T02:17:17;13.70;99.90
7206;DHT22;3644;53.480;10.004;2023-04-24T02:19:44;13.70;99.90
7206;DHT22;3644;53.480;10.004;2023-04-24T02:22:10;15.00;99.90
7206;DHT22;3644;53.480;10.004;2023-04-24T02:24:36;13.60;99.90
7206;DHT22;3644;53.480;10.004;2023-04-24T02:27:01;13.50;99.90
7206;DHT22;3644;53.480;10.004;2023-04-24T02:29:28;13.50;99.90
7206;DHT22;3644;53.480;10.004;2023-04-24T02:31:53;13.30;99.90
7206;DHT22;3644;53.480;10.004;2023-04-24T02:34:19;13.30;99.90
7206;DHT22;3644;53.480;10.004;2023-04-24T02:36:44;13.20;99.90
7206;DHT22;3644;53.480;10.004;2023-04-24T02:39:10;13.20;99.90
7206;DHT22;3644;53.480;10.004;2023-04-24T02:41:35;13.20;99.90
7206;DHT22;3644;53.480;10.004;2023-04-24T02:44:01;13.20;99.90
7206;DHT22;3644;53.480;10.004;2023-04-24T02:46:29;13.20;99.90
7206;DHT22;3644;53.480;10.004;2023-04-24T02:48:55;13.10;99.90
7206;DHT22;3644;53.480;10.004;2023-04-24T02:51:20;13.10;99.90
7206;DHT22;3644;53.480;10.004;2023-04-24T02:53:46;13.10;99.90
7206;DHT22;3644;53.480;10.004;2023-04-24T02:56:11;13.10;99.90
7206;DHT22;3644;53.480;10.004;2023-04-24T02:58:40;13.10;99.90
7206;DHT22;3644;53.480;10.004;2023-04-24T03:01:05;13.10;99.90
7206;DHT22;3644;53.480;10.004;2023-04-24T03:03:31;13.00;99.90
7206;DHT22;3644;53.480;10.004;2023-04-24T03:05:56;13.00;99.90
7206;DHT22;3644;53.480;10.004;2023-04-24T03:08:22;13.00;99.90
7206;DHT22;3644;53.480;10.004;2023-04-24T03:10:48;13.00;99.90
7206;DHT22;3644;53.480;10.004;2023-04-24T03:13:16;13.00;99.90
7206;DHT22;3644;53.480;10.004;2023-04-24T03:15:41;12.90;99.90
7206;DHT22;3644;53.480;10.004;2023-04-24T03:18:07;12.90;99.90
7206;DHT22;3644;53.480;10.004;2023-04-24T03:20:32;12.80;99.90
7206;DHT22;3644;53.480;10.004;2023-04-24T03:22:58;12.90;99.90
7206;DHT22;3644;53.480;10.004;2023-04-24T03:25:23;12.90;99.90
7206;DHT22;3644;53.480;10.004;2023-04-24T03:27:49;12.80;99.90
7206;DHT22;3644;53.480;10.004;2023-04-24T03:30:14;12.80;99.90
7206;DHT22;3644;53.480;10.004;2023-04-24T03:32:40;12.80;99.90
7206;DHT22;3644;53.480;10.004;2023-04-24T03:35:08;12.70;99.90
7206;DHT22;3644;53.480;10.004;2023-04-24T03:37:34;12.70;99.90
7206;DHT22;3644;53.480;10.004;2023-04-24T03:40:01;12.70;99.90
7206;DHT22;3644;53.480;10.004;2023-04-24T03:42:26;12.60;99.90
7206;DHT22;3644;53.480;10.004;2023-04-24T03:44:52;12.70;99.90
7206;DHT22;3644;53.480;10.004;2023-04-24T03:47:17;12.70;99.90
7206;DHT22;3644;53.480;10.004;2023-04-24T03:49:43;16.10;99.90
7206;DHT22;3644;53.480;10.004;2023-04-24T03:52:08;12.50;99.90
7206;DHT22;3644;53.480;10.004;2023-04-24T03:54:34;12.60;99.90
7206;DHT22;3644;53.480;10.004;2023-04-24T03:56:59;12.60;99.90
7206;DHT22;3644;53.480;10.004;2023-04-24T03:59:25;12.60;99.90
7206;DHT22;3644;53.480;10.004;2023-04-24T04:01:51;12.60;99.90
7206;DHT22;3644;53.480;10.004;2023-04-24T04:04:16;12.60;99.90
7206;DHT22;3644;53.480;10.004;2023-04-24T04:06:42;12.50;99.90
7206;DHT22;3644;53.480;10.004;2023-04-24T04:09:09;12.50;99.90
7206;DHT22;3644;53.480;10.004;2023-04-24T04:11:35;15.40;99.90
7206;DHT22;3644;53.480;10.004;2023-04-24T04:14:01;12.40;99.90
7206;DHT22;3644;53.480;10.004;2023-04-24T04:16:26;12.40;99.90
7206;DHT22;3644;53.480;10.004;2023-04-24T04:18:52;12.50;99.90
7206;DHT22;3644;53.480;10.004;2023-04-24T04:21:17;12.50;99.90
7206;DHT22;3644;53.480;10.004;2023-04-24T04:23:43;12.50;99.90
7206;DHT22;3644;53.480;10.004;2023-04-24T04:26:09;12.40;99.90
7206;DHT22;3644;53.480;10.004;2023-04-24T04:28:34;12.40;99.90
7206;DHT22;3644;53.480;10.004;2023-04-24T04:31:01;12.40;99.90
7206;DHT22;3644;53.480;10.004;2023-04-24T04:33:27;12.40;99.90
7206;DHT22;3644;53.480;10.004;2023-04-24T04:35:53;12.40;99.90
7206;DHT22;3644;53.480;10.004;2023-04-24T04:38:19;12.40;99.90
7206;DHT22;3644;53.480;10.004;2023-04-24T04:40:46;12.40;99.90
7206;DHT22;3644;53.480;10.004;2023-04-24T04:43:12;12.50;99.90
7206;DHT22;3644;53.480;10.004;2023-04-24T04:45:38;12.40;99.90
7206;DHT22;3644;53.480;10.004;2023-04-24T04:48:05;12.40;99.90
7206;DHT22;3644;53.480;10.004;2023-04-24T04:50:33;12.50;99.90
7206;DHT22;3644;53.480;10.004;2023-04-24T04:52:58;12.60;99.90
7206;DHT22;3644;53.480;10.004;2023-04-24T04:55:24;12.70;99.90
7206;DHT22;3644;53.480;10.004;2023-04-24T04:57:50;12.70;99.90
7206;DHT22;3644;53.480;10.004;2023-04-24T05:00:15;12.70;99.90
7206;DHT22;3644;53.480;10.004;2023-04-24T05:02:41;12.70;99.90
7206;DHT22;3644;53.480;10.004;2023-04-24T05:05:07;12.70;99.90
7206;DHT22;3644;53.480;10.004;2023-04-24T05:07:33;12.70;99.90
7206;DHT22;3644;53.480;10.004;2023-04-24T05:09:58;12.70;99.90
7206;DHT22;3644;53.480;10.004;2023-04-24T05:12:24;12.60;99.90
7206;DHT22;3644;53.480;10.004;2023-04-24T05:14:49;12.70;99.90
7206;DHT22;3644;53.480;10.004;2023-04-24T05:17:15;12.70;99.90
7206;DHT22;3644;53.480;10.004;2023-04-24T05:19:41;12.60;99.90
7206;DHT22;3644;53.480;10.004;2023-04-24T05:22:07;12.70;99.90
7206;DHT22;3644;53.480;10.004;2023-04-24T05:24:33;12.70;99.90
7206;DHT22;3644;53.480;10.004;2023-04-24T05:26:59;12.80;99.90
7206;DHT22;3644;53.480;10.004;2023-04-24T05:29:25;12.80;99.90
7206;DHT22;3644;53.480;10.004;2023-04-24T05:31:51;12.70;99.90
7206;DHT22;3644;53.480;10.004;2023-04-24T05:34:17;12.80;99.90
7206;DHT22;3644;53.480;10.004;2023-04-24T05:36:43;12.80;99.90
7206;DHT22;3644;53.480;10.004;2023-04-24T05:39:08;12.90;99.90
7206;DHT22;3644;53.480;10.004;2023-04-24T05:41:34;12.90;99.90
7206;DHT22;3644;53.480;10.004;2023-04-24T05:44:00;12.90;99.90
7206;DHT22;3644;53.480;10.004;2023-04-24T05:46:25;13.10;99.90
7206;DHT22;3644;53.480;10.004;2023-04-24T05:48:51;13.30;99.90
7206;DHT22;3644;53.480;10.004;2023-04-24T05:51:16;13.50;99.90
7206;DHT22;3644;53.480;10.004;2023-04-24T05:53:42;13.60;99.90
7206;DHT22;3644;53.480;10.004;2023-04-24T05:56:07;13.80;99.90
7206;DHT22;3644;53.480;10.004;2023-04-24T05:58:33;13.80;99.90
7206;DHT22;3644;53.480;10.004;2023-04-24T06:00:58;13.70;99.90
7206;DHT22;3644;53.480;10.004;2023-04-24T06:03:26;13.70;99.90
7206;DHT22;3644;53.480;10.004;2023-04-24T06:05:52;13.60;99.90
7206;DHT22;3644;53.480;10.004;2023-04-24T06:08:18;13.60;99.90
7206;DHT22;3644;53.480;10.004;2023-04-24T06:10:43;13.50;99.90
7206;DHT22;3644;53.480;10.004;2023-04-24T06:13:09;13.50;99.90
7206;DHT22;3644;53.480;10.004;2023-04-24T06:15:35;13.60;99.90
7206;DHT22;3644;53.480;10.004;2023-04-24T06:18:00;13.50;99.90
7206;DHT22;3644;53.480;10.004;2023-04-24T06:20:26;13.60;99.90
7206;DHT22;3644;53.480;10.004;2023-04-24T06:22:52;13.60;99.90
7206;DHT22;3644;53.480;10.004;2023-04-24T06:25:17;13.70;99.90
7206;DHT22;3644;53.480;10.004;2023-04-24T06:27:43;13.70;99.90
7206;DHT22;3644;53.480;10.004;2023-04-24T06:30:09;13.70;99.90
7206;DHT22;3644;53.480;10.004;2023-04-24T06:32:34;13.70;99.90
7206;DHT22;3644;53.480;10.004;2023-04-24T06:35:00;13.80;99.90
7206;DHT22;3644;53.480;10.004;2023-04-24T06:37:25;13.90;99.90
7206;DHT22;3644;53.480;10.004;2023-04-24T06:39:51;13.90;99.90
7206;DHT22;3644;53.480;10.004;2023-04-24T06:42:17;14.00;99.90
7206;DHT22;3644;53.480;10.004;2023-04-24T06:44:42;14.00;99.90
7206;DHT22;3644;53.480;10.004;2023-04-24T06:47:11;14.10;99.90
7206;DHT22;3644;53.480;10.004;2023-04-24T06:49:39;14.20;99.90
7206;DHT22;3644;53.480;10.004;2023-04-24T06:52:05;14.20;99.90
7206;DHT22;3644;53.480;10.004;2023-04-24T06:54:31;14.30;99.90
7206;DHT22;3644;53.480;10.004;2023-04-24T06:56:58;14.40;99.90
7206;DHT22;3644;53.480;10.004;2023-04-24T06:59:24;14.30;99.90
7206;DHT22;3644;53.480;10.004;2023-04-24T07:01:50;14.40;99.90
7206;DHT22;3644;53.480;10.004;2023-04-24T07:04:16;14.50;99.90
7206;DHT22;3644;53.480;10.004;2023-04-24T07:06:42;14.40;99.90
7206;DHT22;3644;53.480;10.004;2023-04-24T07:09:08;14.70;99.90
7206;DHT22;3644;53.480;10.004;2023-04-24T07:11:35;14.60;99.90
7206;DHT22;3644;53.480;10.004;2023-04-24T07:14:02;14.60;99.90
7206;DHT22;3644;53.480;10.004;2023-04-24T07:16:28;14.60;99.90
7206;DHT22;3644;53.480;10.004;2023-04-24T07:18:53;14.60;99.90
7206;DHT22;3644;53.480;10.004;2023-04-24T07:21:19;14.70;99.90
7206;DHT22;3644;53.480;10.004;2023-04-24T07:23:44;14.80;99.90
7206;DHT22;3644;53.480;10.004;2023-04-24T07:26:10;15.00;99.90
7206;DHT22;3644;53.480;10.004;2023-04-24T07:28:35;15.20;99.90
7206;DHT22;3644;53.480;10.004;2023-04-24T07:31:01;15.30;99.90
7206;DHT22;3644;53.480;10.004;2023-04-24T07:33:26;15.30;99.90
7206;DHT22;3644;53.480;10.004;2023-04-24T07:35:52;15.50;99.90
7206;DHT22;3644;53.480;10.004;2023-04-24T07:38:18;15.50;99.90
7206;DHT22;3644;53.480;10.004;2023-04-24T07:40:48;15.60;99.90
7206;DHT22;3644;53.480;10.004;2023-04-24T07:43:13;15.70;99.90
7206;DHT22;3644;53.480;10.004;2023-04-24T07:45:39;15.60;99.90
7206;DHT22;3644;53.480;10.004;2023-04-24T07:48:05;15.50;99.90
7206;DHT22;3644;53.480;10.004;2023-04-24T07:50:31;15.40;99.90
7206;DHT22;3644;53.480;10.004;2023-04-24T07:52:57;15.50;99.90
7206;DHT22;3644;53.480;10.004;2023-04-24T07:55:23;15.60;99.90
7206;DHT22;3644;53.480;10.004;2023-04-24T07:57:48;15.70;99.90
7206;DHT22;3644;53.480;10.004;2023-04-24T08:00:14;15.70;99.90
7206;DHT22;3644;53.480;10.004;2023-04-24T08:02:40;15.80;99.90
7206;DHT22;3644;53.480;10.004;2023-04-24T08:05:06;15.70;99.90
7206;DHT22;3644;53.480;10.004;2023-04-24T08:07:31;15.80;99.90
7206;DHT22;3644;53.480;10.004;2023-04-24T08:09:57;15.70;99.90
7206;DHT22;3644;53.480;10.004;2023-04-24T08:12:24;15.70;99.90
7206;DHT22;3644;53.480;10.004;2023-04-24T08:14:50;15.80;99.90
7206;DHT22;3644;53.480;10.004;2023-04-24T08:17:16;15.80;99.90
7206;DHT22;3644;53.480;10.004;2023-04-24T08:19:42;15.90;99.90
7206;DHT22;3644;53.480;10.004;2023-04-24T08:22:12;15.90;99.90
7206;DHT22;3644;53.480;10.004;2023-04-24T08:24:38;15.70;99.90
7206;DHT22;3644;53.480;10.004;2023-04-24T08:27:04;15.70;99.90
7206;DHT22;3644;53.480;10.004;2023-04-24T08:29:29;15.70;99.90
7206;DHT22;3644;53.480;10.004;2023-04-24T08:31:55;15.80;99.90
7206;DHT22;3644;53.480;10.004;2023-04-24T08:34:21;16.00;99.90
7206;DHT22;3644;53.480;10.004;2023-04-24T08:36:47;16.10;99.90
7206;DHT22;3644;53.480;10.004;2023-04-24T08:39:12;16.00;99.90
7206;DHT22;3644;53.480;10.004;2023-04-24T08:41:40;16.10;99.90
7206;DHT22;3644;53.480;10.004;2023-04-24T08:44:08;16.10;99.90
7206;DHT22;3644;53.480;10.004;2023-04-24T08:46:34;16.10;99.90
7206;DHT22;3644;53.480;10.004;2023-04-24T08:49:00;16.10;99.90
7206;DHT22;3644;53.480;10.004;2023-04-24T08:51:27;16.20;99.90
7206;DHT22;3644;53.480;10.004;2023-04-24T08:53:55;16.30;99.90
7206;DHT22;3644;53.480;10.004;2023-04-24T08:56:22;16.40;99.90
7206;DHT22;3644;53.480;10.004;2023-04-24T08:58:50;16.60;99.90
7206;DHT22;3644;53.480;10.004;2023-04-24T09:01:18;16.60;99.90
7206;DHT22;3644;53.480;10.004;2023-04-24T09:03:44;16.80;99.90
7206;DHT22;3644;53.480;10.004;2023-04-24T09:06:11;16.80;99.90
7206;DHT22;3644;53.480;10.004;2023-04-24T09:08:36;16.80;99.90
7206;DHT22;3644;53.480;10.004;2023-04-24T09:11:03;16.60;99.90
7206;DHT22;3644;53.480;10.004;2023-04-24T09:13:29;16.40;99.90
7206;DHT22;3644;53.480;10.004;2023-04-24T09:15:55;16.40;99.90
7206;DHT22;3644;53.480;10.004;2023-04-24T09:18:22;16.30;99.90
7206;DHT22;3644;53.480;10.004;2023-04-24T09:21:01;16.20;99.90
7206;DHT22;3644;53.480;10.004;2023-04-24T09:23:29;16.30;99.90
7206;DHT22;3644;53.480;10.004;2023-04-24T09:25:56;16.40;99.90
7206;DHT22;3644;53.480;10.004;2023-04-24T09:28:35;16.30;99.90
7206;DHT22;3644;53.480;10.004;2023-04-24T09:31:15;16.50;99.90
7206;DHT22;3644;53.480;10.004;2023-04-24T09:34:01;16.50;99.90
7206;DHT22;3644;53.480;10.004;2023-04-24T09:36:33;16.60;99.90
7206;DHT22;3644;53.480;10.004;2023-04-24T09:39:01;16.50;99.90
7206;DHT22;3644;53.480;10.004;2023-04-24T09:41:28;16.40;99.90
7206;DHT22;3644;53.480;10.004;2023-04-24T09:43:55;16.40;99.90
7206;DHT22;3644;53.480;10.004;2023-04-24T09:46:20;16.40;99.90
7206;DHT22;3644;53.480;10.004;2023-04-24T09:48:49;16.60;99.90
7206;DHT22;3644;53.480;10.004;2023-04-24T09:51:14;16.70;99.90
7206;DHT22;3644;53.480;10.004;2023-04-24T09:53:45;16.80;99.90
7206;DHT22;3644;53.480;10.004;2023-04-24T09:56:11;17.00;99.90
7206;DHT22;3644;53.480;10.004;2023-04-24T09:58:38;17.10;99.90
7206;DHT22;3644;53.480;10.004;2023-04-24T10:01:04;17.30;99.90
7206;DHT22;3644;53.480;10.004;2023-04-24T10:03:33;17.40;99.90
7206;DHT22;3644;53.480;10.004;2023-04-24T10:06:03;17.50;99.90
7206;DHT22;3644;53.480;10.004;2023-04-24T10:08:35;17.40;99.90
7206;DHT22;3644;53.480;10.004;2023-04-24T10:11:01;17.30;99.90
7206;DHT22;3644;53.480;10.004;2023-04-24T10:13:28;17.20;99.90
7206;DHT22;3644;53.480;10.004;2023-04-24T10:15:54;17.20;99.90
7206;DHT22;3644;53.480;10.004;2023-04-24T10:18:20;17.20;99.90
7206;DHT22;3644;53.480;10.004;2023-04-24T10:20:46;17.20;99.90
7206;DHT22;3644;53.480;10.004;2023-04-24T10:23:12;17.00;99.90
7206;DHT22;3644;53.480;10.004;2023-04-24T10:25:38;17.00;99.90
7206;DHT22;3644;53.480;10.004;2023-04-24T10:28:04;17.00;99.90
7206;DHT22;3644;53.480;10.004;2023-04-24T10:30:33;16.80;99.90
7206;DHT22;3644;53.480;10.004;2023-04-24T10:33:06;16.40;99.90
7206;DHT22;3644;53.480;10.004;2023-04-24T10:35:35;16.40;99.90
7206;DHT22;3644;53.480;10.004;2023-04-24T10:38:05;16.40;99.90
7206;DHT22;3644;53.480;10.004;2023-04-24T10:40:34;16.20;99.90
7206;DHT22;3644;53.480;10.004;2023-04-24T10:43:03;16.10;99.90
7206;DHT22;3644;53.480;10.004;2023-04-24T10:45:31;16.10;99.90
7206;DHT22;3644;53.480;10.004;2023-04-24T10:48:01;16.10;99.90
7206;DHT22;3644;53.480;10.004;2023-04-24T10:53:11;16.40;99.90
7206;DHT22;3644;53.480;10.004;2023-04-24T10:55:49;16.70;99.90
7206;DHT22;3644;53.480;10.004;2023-04-24T10:58:15;16.90;99.90
7206;DHT22;3644;53.480;10.004;2023-04-24T11:00:42;17.00;99.90
7206;DHT22;3644;53.480;10.004;2023-04-24T11:03:27;17.20;99.90
7206;DHT22;3644;53.480;10.004;2023-04-24T11:06:00;17.30;99.90
7206;DHT22;3644;53.480;10.004;2023-04-24T11:08:28;17.50;99.90
7206;DHT22;3644;53.480;10.004;2023-04-24T11:10:59;17.60;99.90
7206;DHT22;3644;53.480;10.004;2023-04-24T11:13:27;17.80;99.90
7206;DHT22;3644;53.480;10.004;2023-04-24T11:22:01;17.70;99.90
7206;DHT22;3644;53.480;10.004;2023-04-24T11:27:11;17.40;99.90
7206;DHT22;3644;53.480;10.004;2023-04-24T11:35:06;17.60;99.90
7206;DHT22;3644;53.480;10.004;2023-04-24T11:37:42;17.60;99.90
7206;DHT22;3644;53.480;10.004;2023-04-24T11:40:10;17.80;99.90
7206;DHT22;3644;53.480;10.004;2023-04-24T11:42:42;17.60;99.90
7206;DHT22;3644;53.480;10.004;2023-04-24T11:45:09;17.60;99.90
7206;DHT22;3644;53.480;10.004;2023-04-24T11:47:35;17.50;99.90
7206;DHT22;3644;53.480;10.004;2023-04-24T11:50:02;17.60;99.90
7206;DHT22;3644;53.480;10.004;2023-04-24T11:52:29;17.80;99.90
7206;DHT22;3644;53.480;10.004;2023-04-24T11:54:55;17.90;99.90
7206;DHT22;3644;53.480;10.004;2023-04-24T11:57:24;18.00;99.90
7206;DHT22;3644;53.480;10.004;2023-04-24T11:59:51;18.10;99.90
7206;DHT22;3644;53.480;10.004;2023-04-24T12:02:21;18.50;99.90
7206;DHT22;3644;53.480;10.004;2023-04-24T12:04:47;18.70;99.90
7206;DHT22;3644;53.480;10.004;2023-04-24T12:07:12;19.00;99.90
7206;DHT22;3644;53.480;10.004;2023-04-24T12:09:44;19.10;99.90
7206;DHT22;3644;53.480;10.004;2023-04-24T12:12:12;19.00;99.90
7206;DHT22;3644;53.480;10.004;2023-04-24T12:14:48;18.90;99.90
7206;DHT22;3644;53.480;10.004;2023-04-24T12:17:14;18.50;99.90
7206;DHT22;3644;53.480;10.004;2023-04-24T12:19:45;18.40;99.90
7206;DHT22;3644;53.480;10.004;2023-04-24T12:22:11;18.30;99.90
7206;DHT22;3644;53.480;10.004;2023-04-24T12:24:56;18.20;99.90
7206;DHT22;3644;53.480;10.004;2023-04-24T12:27:22;17.90;99.90
7206;DHT22;3644;53.480;10.004;2023-04-24T12:29:57;17.80;99.90
7206;DHT22;3644;53.480;10.004;2023-04-24T12:32:24;17.60;99.90
7206;DHT22;3644;53.480;10.004;2023-04-24T12:34:53;17.50;99.90
7206;DHT22;3644;53.480;10.004;2023-04-24T12:37:19;17.20;99.90
7206;DHT22;3644;53.480;10.004;2023-04-24T12:39:59;17.20;99.90
7206;DHT22;3644;53.480;10.004;2023-04-24T12:42:26;17.00;99.90
7206;DHT22;3644;53.480;10.004;2023-04-24T12:44:56;16.90;99.90
7206;DHT22;3644;53.480;10.004;2023-04-24T12:47:24;16.70;99.90
7206;DHT22;3644;53.480;10.004;2023-04-24T12:49:50;16.70;99.90
7206;DHT22;3644;53.480;10.004;2023-04-24T12:52:18;16.60;99.90
7206;DHT22;3644;53.480;10.004;2023-04-24T12:54:45;19.00;99.90
7206;DHT22;3644;53.480;10.004;2023-04-24T12:57:11;16.60;99.90
7206;DHT22;3644;53.480;10.004;2023-04-24T12:59:36;16.40;99.90
7206;DHT22;3644;53.480;10.004;2023-04-24T13:02:02;16.30;99.90
7206;DHT22;3644;53.480;10.004;2023-04-24T13:04:28;16.40;99.90
7206;DHT22;3644;53.480;10.004;2023-04-24T13:06:53;16.30;99.90
7206;DHT22;3644;53.480;10.004;2023-04-24T13:09:19;16.20;99.90
7206;DHT22;3644;53.480;10.004;2023-04-24T13:11:44;16.10;99.90
7206;DHT22;3644;53.480;10.004;2023-04-24T13:14:09;16.10;99.90
7206;DHT22;3644;53.480;10.004;2023-04-24T13:16:35;16.10;99.90
7206;DHT22;3644;53.480;10.004;2023-04-24T13:19:00;16.00;99.90
7206;DHT22;3644;53.480;10.004;2023-04-24T13:21:26;15.90;99.90
7206;DHT22;3644;53.480;10.004;2023-04-24T13:23:52;15.80;99.90
7206;DHT22;3644;53.480;10.004;2023-04-24T13:26:18;15.70;99.90
7206;DHT22;3644;53.480;10.004;2023-04-24T13:28:43;15.80;99.90
7206;DHT22;3644;53.480;10.004;2023-04-24T13:31:09;15.90;99.90
7206;DHT22;3644;53.480;10.004;2023-04-24T13:33:34;16.10;99.90
7206;DHT22;3644;53.480;10.004;2023-04-24T13:36:01;16.00;99.90
7206;DHT22;3644;53.480;10.004;2023-04-24T13:38:26;16.00;99.90
7206;DHT22;3644;53.480;10.004;2023-04-24T13:40:52;15.90;99.90
7206;DHT22;3644;53.480;10.004;2023-04-24T13:43:17;15.90;99.90
7206;DHT22;3644;53.480;10.004;2023-04-24T13:45:43;15.80;99.90
7206;DHT22;3644;53.480;10.004;2023-04-24T13:48:08;15.70;99.90
7206;DHT22;3644;53.480;10.004;2023-04-24T13:50:34;15.80;99.90
7206;DHT22;3644;53.480;10.004;2023-04-24T13:53:00;15.70;99.90
7206;DHT22;3644;53.480;10.004;2023-04-24T13:55:26;15.50;99.90
7206;DHT22;3644;53.480;10.004;2023-04-24T13:57:52;15.40;99.90
7206;DHT22;3644;53.480;10.004;2023-04-24T14:00:20;15.60;99.90
7206;DHT22;3644;53.480;10.004;2023-04-24T14:02:46;15.60;99.90
7206;DHT22;3644;53.480;10.004;2023-04-24T14:05:13;15.60;99.90
7206;DHT22;3644;53.480;10.004;2023-04-24T14:07:40;15.60;99.90
7206;DHT22;3644;53.480;10.004;2023-04-24T14:10:07;15.80;99.90
7206;DHT22;3644;53.480;10.004;2023-04-24T14:12:33;16.00;99.90
7206;DHT22;3644;53.480;10.004;2023-04-24T14:14:58;16.10;99.90
7206;DHT22;3644;53.480;10.004;2023-04-24T14:17:24;16.20;99.90
7206;DHT22;3644;53.480;10.004;2023-04-24T14:19:49;16.30;99.90
7206;DHT22;3644;53.480;10.004;2023-04-24T14:22:17;16.50;99.90
7206;DHT22;3644;53.480;10.004;2023-04-24T14:24:43;16.50;99.90
7206;DHT22;3644;53.480;10.004;2023-04-24T14:27:08;16.60;99.90
7206;DHT22;3644;53.480;10.004;2023-04-24T14:29:34;16.50;99.90
7206;DHT22;3644;53.480;10.004;2023-04-24T14:31:59;16.40;99.90
7206;DHT22;3644;53.480;10.004;2023-04-24T14:34:25;16.50;99.90
7206;DHT22;3644;53.480;10.004;2023-04-24T14:36:50;16.40;99.90
7206;DHT22;3644;53.480;10.004;2023-04-24T14:39:16;16.20;99.90
7206;DHT22;3644;53.480;10.004;2023-04-24T14:41:41;19.40;99.90
7206;DHT22;3644;53.480;10.004;2023-04-24T14:44:07;16.00;99.90
7206;DHT22;3644;53.480;10.004;2023-04-24T14:46:32;15.70;99.90
7206;DHT22;3644;53.480;10.004;2023-04-24T14:48:58;15.60;99.90
7206;DHT22;3644;53.480;10.004;2023-04-24T14:51:23;15.20;99.90
7206;DHT22;3644;53.480;10.004;2023-04-24T14:53:49;14.90;99.90
7206;DHT22;3644;53.480;10.004;2023-04-24T14:56:15;14.70;99.90
7206;DHT22;3644;53.480;10.004;2023-04-24T14:58:40;14.70;99.90
7206;DHT22;3644;53.480;10.004;2023-04-24T15:01:06;14.60;99.90
7206;DHT22;3644;53.480;10.004;2023-04-24T15:03:31;14.40;99.90
7206;DHT22;3644;53.480;10.004;2023-04-24T15:05:57;13.90;99.90
7206;DHT22;3644;53.480;10.004;2023-04-24T15:08:23;13.80;99.90
7206;DHT22;3644;53.480;10.004;2023-04-24T15:10:49;13.90;99.90
7206;DHT22;3644;53.480;10.004;2023-04-24T15:13:14;13.90;99.90
7206;DHT22;3644;53.480;10.004;2023-04-24T15:15:40;13.90;99.90
7206;DHT22;3644;53.480;10.004;2023-04-24T15:18:09;13.90;99.90
7206;DHT22;3644;53.480;10.004;2023-04-24T15:20:37;13.80;99.90
7206;DHT22;3644;53.480;10.004;2023-04-24T15:23:05;13.60;99.90
7206;DHT22;3644;53.480;10.004;2023-04-24T15:25:30;13.60;99.90
7206;DHT22;3644;53.480;10.004;2023-04-24T15:27:56;13.30;99.90
7206;DHT22;3644;53.480;10.004;2023-04-24T15:30:21;13.10;99.90
7206;DHT22;3644;53.480;10.004;2023-04-24T15:32:47;12.70;99.90
7206;DHT22;3644;53.480;10.004;2023-04-24T15:35:12;12.50;99.90
7206;DHT22;3644;53.480;10.004;2023-04-24T15:37:38;12.30;99.90
7206;DHT22;3644;53.480;10.004;2023-04-24T15:40:04;12.30;99.90
7206;DHT22;3644;53.480;10.004;2023-04-24T15:42:32;12.10;99.90
7206;DHT22;3644;53.480;10.004;2023-04-24T15:44:57;12.20;99.90
7206;DHT22;3644;53.480;10.004;2023-04-24T15:47:24;12.30;99.90
7206;DHT22;3644;53.480;10.004;2023-04-24T15:49:49;12.00;99.90
7206;DHT22;3644;53.480;10.004;2023-04-24T15:52:16;12.00;99.90
7206;DHT22;3644;53.480;10.004;2023-04-24T15:54:42;12.10;99.90
7206;DHT22;3644;53.480;10.004;2023-04-24T15:57:08;11.90;99.90